createdAt,value
2017-11-30T00:00:26.381Z,28.70
2017-11-30T00:02:54.063Z,30.30
2017-11-30T00:05:21.873Z,33.33
2017-11-30T00:07:49.554Z,30.60
2017-11-30T00:10:17.194Z,32.17
2017-11-30T00:12:44.894Z,30.27
2017-11-30T00:15:12.574Z,29.10
2017-11-30T00:17:40.425Z,29.37
2017-11-30T00:20:08.126Z,28.40
2017-11-30T00:22:36.559Z,29.47
2017-11-30T00:25:04.230Z,28.90
2017-11-30T00:27:31.938Z,28.75
2017-11-30T00:29:59.799Z,27.30
2017-11-30T00:32:27.475Z,25.30
2017-11-30T00:34:55.091Z,26.50
2017-11-30T00:37:22.710Z,25.33
2017-11-30T00:39:50.369Z,27.17
2017-11-30T00:42:29.743Z,23.42
2017-11-30T00:44:58.320Z,26.10
2017-11-30T00:47:26.758Z,26.48
2017-11-30T00:49:54.510Z,25.73
2017-11-30T00:52:22.183Z,24.77
2017-11-30T00:54:49.843Z,25.40
2017-11-30T00:57:17.564Z,25.08
2017-11-30T00:59:45.232Z,23.90
2017-11-30T01:02:13.669Z,23.87
2017-11-30T01:04:41.652Z,23.57
2017-11-30T01:07:09.322Z,26.00
2017-11-30T01:09:38.473Z,24.10
2017-11-30T01:12:06.704Z,26.92
2017-11-30T01:14:34.382Z,24.40
2017-11-30T01:17:02.051Z,25.73
2017-11-30T01:19:30.374Z,25.43
2017-11-30T01:21:58.010Z,26.20
2017-11-30T01:24:25.651Z,26.07
2017-11-30T01:26:53.946Z,26.77
2017-11-30T01:29:21.738Z,27.03
2017-11-30T01:31:49.406Z,26.80
2017-11-30T01:34:17.075Z,26.30
2017-11-30T01:36:44.709Z,28.10
2017-11-30T01:39:12.652Z,29.50
2017-11-30T01:41:40.285Z,28.12
2017-11-30T01:44:08.673Z,27.77
2017-11-30T01:46:36.369Z,25.27
2017-11-30T01:49:04.152Z,25.33
2017-11-30T01:51:31.845Z,26.33
2017-11-30T01:53:59.671Z,26.23
2017-11-30T01:56:27.815Z,25.77
2017-11-30T01:58:55.490Z,26.47
2017-11-30T02:01:23.111Z,24.87
2017-11-30T02:03:50.776Z,28.20
2017-11-30T02:06:18.438Z,24.83
2017-11-30T02:08:46.129Z,26.40
2017-11-30T02:11:13.802Z,25.60
2017-11-30T02:13:41.564Z,28.73
2017-11-30T02:16:09.625Z,28.00
2017-11-30T02:18:37.639Z,27.25
2017-11-30T02:21:06.146Z,28.43
2017-11-30T02:23:33.814Z,25.17
2017-11-30T02:26:01.478Z,25.85
2017-11-30T02:28:29.279Z,25.53
2017-11-30T02:30:56.996Z,25.90
2017-11-30T02:33:24.665Z,27.03
2017-11-30T02:35:52.572Z,26.47
2017-11-30T02:38:20.268Z,26.07
2017-11-30T02:40:48.173Z,26.50
2017-11-30T02:43:16.470Z,27.23
2017-11-30T02:45:44.239Z,23.67
2017-11-30T02:48:11.972Z,25.80
2017-11-30T02:50:39.713Z,24.73
2017-11-30T02:53:07.604Z,24.70
2017-11-30T02:55:35.302Z,25.05
2017-11-30T02:58:03.751Z,25.02
2017-11-30T03:00:31.504Z,23.73
2017-11-30T03:02:59.780Z,24.33
2017-11-30T03:05:27.555Z,24.77
2017-11-30T03:07:55.235Z,23.23
2017-11-30T03:10:22.954Z,23.77
2017-11-30T03:12:51.547Z,21.37
2017-11-30T03:15:19.260Z,22.73
2017-11-30T03:17:47.722Z,23.37
2017-11-30T03:20:15.363Z,21.25
2017-11-30T03:22:43.211Z,23.33
2017-11-30T03:25:10.844Z,22.67
2017-11-30T03:27:38.484Z,23.50
2017-11-30T03:30:06.164Z,23.57
2017-11-30T03:32:33.823Z,22.93
2017-11-30T03:35:01.435Z,21.70
2017-11-30T03:37:29.900Z,21.73
2017-11-30T03:39:57.602Z,22.52
2017-11-30T03:42:26.040Z,22.50
2017-11-30T03:44:53.724Z,22.87
2017-11-30T03:47:25.049Z,23.77
2017-11-30T03:49:52.679Z,21.57
2017-11-30T03:52:20.370Z,20.53
2017-11-30T03:54:48.075Z,21.90
2017-11-30T03:57:16.515Z,20.80
2017-11-30T03:59:44.946Z,19.77
2017-11-30T04:02:13.000Z,18.65
2017-11-30T04:04:40.735Z,18.40
2017-11-30T04:07:08.695Z,16.87
2017-11-30T04:09:36.455Z,18.13
2017-11-30T04:12:04.142Z,19.83
2017-11-30T04:14:31.760Z,18.83
2017-11-30T04:16:59.434Z,19.57
2017-11-30T04:19:27.057Z,18.53
2017-11-30T04:21:54.672Z,18.50
2017-11-30T04:24:22.330Z,19.73
2017-11-30T04:26:51.460Z,21.07
2017-11-30T04:29:19.169Z,18.80
2017-11-30T04:31:46.790Z,18.00
2017-11-30T04:34:14.454Z,18.63
2017-11-30T04:36:42.132Z,19.50
2017-11-30T04:39:09.748Z,19.73
2017-11-30T04:41:37.415Z,19.47
2017-11-30T04:44:05.854Z,22.17
2017-11-30T04:46:33.560Z,22.63
2017-11-30T04:49:01.234Z,21.03
2017-11-30T04:51:28.896Z,21.25
2017-11-30T04:53:56.862Z,18.80
2017-11-30T04:56:25.267Z,20.45
2017-11-30T04:58:52.915Z,18.90
2017-11-30T05:01:20.606Z,19.77
2017-11-30T05:03:48.246Z,20.03
2017-11-30T05:06:16.325Z,19.87
2017-11-30T05:08:44.047Z,22.17
2017-11-30T05:11:11.915Z,20.70
2017-11-30T05:13:39.591Z,23.20
2017-11-30T05:16:07.616Z,22.00
2017-11-30T05:18:36.051Z,23.43
2017-11-30T05:21:03.919Z,22.90
2017-11-30T05:23:31.579Z,23.43
2017-11-30T05:25:59.252Z,25.20
2017-11-30T05:28:26.901Z,23.73
2017-11-30T05:30:54.521Z,22.70
2017-11-30T05:33:22.191Z,23.43
2017-11-30T05:35:50.004Z,21.67
2017-11-30T05:38:17.798Z,22.40
2017-11-30T05:40:46.194Z,24.80
2017-11-30T05:43:13.902Z,23.02
2017-11-30T05:45:41.524Z,24.00
2017-11-30T05:48:09.312Z,22.63
2017-11-30T05:50:36.936Z,24.10
2017-11-30T05:53:04.603Z,24.67
2017-11-30T05:55:32.223Z,22.23
2017-11-30T05:57:59.895Z,25.30
2017-11-30T06:00:28.560Z,23.40
2017-11-30T06:02:56.986Z,25.27
2017-11-30T06:05:24.691Z,24.10
2017-11-30T06:07:53.159Z,22.33
2017-11-30T06:10:23.488Z,24.70
2017-11-30T06:12:52.237Z,24.40
2017-11-30T06:15:19.915Z,20.23
2017-11-30T06:17:47.533Z,23.50
2017-11-30T06:20:16.636Z,22.53
2017-11-30T06:22:44.271Z,21.45
2017-11-30T06:25:12.608Z,22.55
2017-11-30T06:27:40.228Z,22.77
2017-11-30T06:30:09.064Z,21.17
2017-11-30T06:32:37.542Z,21.53
2017-11-30T06:35:05.304Z,20.67
2017-11-30T06:37:32.933Z,20.55
2017-11-30T06:40:00.608Z,21.30
2017-11-30T06:42:28.286Z,21.37
2017-11-30T06:44:55.905Z,22.80
2017-11-30T06:47:26.936Z,23.33
2017-11-30T06:49:54.603Z,24.10
2017-11-30T06:52:22.303Z,22.00
2017-11-30T06:54:50.171Z,21.20
2017-11-30T06:57:17.817Z,21.60
2017-11-30T06:59:45.491Z,24.83
2017-11-30T07:02:13.118Z,24.20
2017-11-30T07:04:40.797Z,24.92
2017-11-30T07:07:08.470Z,26.65
2017-11-30T07:09:36.923Z,25.05
2017-11-30T07:12:04.597Z,25.10
2017-11-30T07:14:32.277Z,24.70
2017-11-30T07:17:00.570Z,28.08
2017-11-30T07:19:28.240Z,26.63
2017-11-30T07:21:55.868Z,26.20
2017-11-30T07:24:23.924Z,27.37
2017-11-30T07:26:51.630Z,27.97
2017-11-30T07:29:19.258Z,29.50
2017-11-30T07:31:47.631Z,29.27
2017-11-30T07:34:15.305Z,27.30
2017-11-30T07:36:42.924Z,29.87
2017-11-30T07:39:10.601Z,29.60
2017-11-30T07:41:38.263Z,29.40
2017-11-30T07:44:05.957Z,27.57
2017-11-30T07:46:33.586Z,31.00
2017-11-30T07:49:01.568Z,26.87
2017-11-30T07:51:29.186Z,27.67
2017-11-30T07:53:56.856Z,29.40
2017-11-30T07:56:24.531Z,29.53
2017-11-30T07:58:52.205Z,27.10
2017-11-30T08:01:20.039Z,26.33
2017-11-30T08:03:47.694Z,22.83
2017-11-30T08:06:16.425Z,25.35
2017-11-30T08:08:44.046Z,24.87
2017-11-30T08:11:11.707Z,20.90
2017-11-30T08:13:39.335Z,19.47
2017-11-30T08:16:07.007Z,21.80
2017-11-30T08:18:34.651Z,18.77
2017-11-30T08:21:02.395Z,20.80
2017-11-30T08:23:30.185Z,23.40
2017-11-30T08:25:57.790Z,20.83
2017-11-30T08:28:25.494Z,20.25
2017-11-30T08:30:53.171Z,20.73
2017-11-30T08:33:20.820Z,19.00
2017-11-30T08:35:48.849Z,21.62
2017-11-30T08:38:16.540Z,19.73
2017-11-30T08:40:44.228Z,18.47
2017-11-30T08:43:11.900Z,18.97
2017-11-30T08:45:39.609Z,21.10
2017-11-30T08:48:07.262Z,20.25
2017-11-30T08:50:34.945Z,21.73
2017-11-30T08:53:02.611Z,18.73
2017-11-30T08:55:30.365Z,18.87
2017-11-30T08:57:58.035Z,18.50
2017-11-30T09:00:27.236Z,18.00
2017-11-30T09:02:55.678Z,17.65
2017-11-30T09:05:23.309Z,17.45
2017-11-30T09:07:50.986Z,20.70
2017-11-30T09:10:18.664Z,19.95
2017-11-30T09:12:46.294Z,19.25
2017-11-30T09:15:13.979Z,19.60
2017-11-30T09:17:41.658Z,20.60
2017-11-30T09:20:09.524Z,18.55
2017-11-30T09:22:37.158Z,18.50
2017-11-30T09:25:04.859Z,19.60
2017-11-30T09:27:32.543Z,19.45
2017-11-30T09:30:00.932Z,17.63
2017-11-30T09:32:28.599Z,18.93
2017-11-30T09:34:56.254Z,19.27
2017-11-30T09:37:23.867Z,18.23
2017-11-30T09:39:51.562Z,19.42
2017-11-30T09:42:19.179Z,18.65
2017-11-30T09:44:46.883Z,18.20
2017-11-30T09:47:15.533Z,19.15
2017-11-30T09:49:43.222Z,21.50
2017-11-30T09:52:11.603Z,20.10
2017-11-30T09:54:39.297Z,19.10
2017-11-30T09:57:07.011Z,18.60
2017-11-30T09:59:34.704Z,19.92
2017-11-30T10:02:02.346Z,21.45
2017-11-30T10:04:30.014Z,17.93
2017-11-30T10:06:57.647Z,19.00
2017-11-30T10:09:25.316Z,19.70
2017-11-30T10:11:53.172Z,19.80
2017-11-30T10:14:20.832Z,19.50
2017-11-30T10:16:48.490Z,19.48
2017-11-30T10:19:16.938Z,18.23
2017-11-30T10:21:44.620Z,18.27
2017-11-30T10:24:12.335Z,17.40
2017-11-30T10:26:40.127Z,22.10
2017-11-30T10:29:07.892Z,21.17
2017-11-30T10:31:35.540Z,19.47
2017-11-30T10:34:03.344Z,21.40
2017-11-30T10:36:31.269Z,19.50
2017-11-30T10:38:58.975Z,21.37
2017-11-30T10:41:26.975Z,20.15
2017-11-30T10:43:54.771Z,21.05
2017-11-30T10:46:22.843Z,20.80
2017-11-30T10:48:50.511Z,22.80
2017-11-30T10:51:18.195Z,21.37
2017-11-30T10:53:45.855Z,19.70
2017-11-30T10:56:14.280Z,20.87
2017-11-30T10:58:41.923Z,21.13
2017-11-30T11:01:09.598Z,21.47
2017-11-30T11:03:37.258Z,20.37
2017-11-30T11:06:04.871Z,21.55
2017-11-30T11:08:32.788Z,22.30
2017-11-30T11:11:00.402Z,21.33
2017-11-30T11:13:28.072Z,20.67
2017-11-30T11:15:55.776Z,23.52
2017-11-30T11:18:23.743Z,20.33
2017-11-30T11:20:51.358Z,21.13
2017-11-30T11:23:18.983Z,20.55
2017-11-30T11:25:46.669Z,22.08
2017-11-30T11:28:14.659Z,19.07
2017-11-30T11:30:42.497Z,20.88
2017-11-30T11:33:10.276Z,20.17
2017-11-30T11:35:39.486Z,19.20
2017-11-30T11:38:07.151Z,20.00
2017-11-30T11:40:34.818Z,20.50
2017-11-30T11:43:03.690Z,21.20
2017-11-30T11:45:31.339Z,19.67
2017-11-30T11:47:59.986Z,19.93
2017-11-30T11:50:27.665Z,19.67
2017-11-30T11:52:55.348Z,18.10
2017-11-30T11:55:23.782Z,19.07
2017-11-30T11:57:51.467Z,18.63
2017-11-30T12:00:19.766Z,19.17
2017-11-30T12:02:47.438Z,17.37
2017-11-30T12:05:15.735Z,19.90
2017-11-30T12:07:43.346Z,20.00
2017-11-30T12:10:11.058Z,17.30
2017-11-30T12:12:38.683Z,18.70
2017-11-30T12:15:07.118Z,21.50
2017-11-30T12:17:34.744Z,19.58
2017-11-30T12:20:02.416Z,18.37
2017-11-30T12:22:30.093Z,17.40
2017-11-30T12:24:57.711Z,18.63
2017-11-30T12:27:25.374Z,16.97
2017-11-30T12:29:53.058Z,17.42
2017-11-30T12:32:20.755Z,18.47
2017-11-30T12:34:48.507Z,18.03
2017-11-30T12:37:16.128Z,17.60
2017-11-30T12:39:44.871Z,17.40
2017-11-30T12:42:12.830Z,16.60
2017-11-30T12:44:40.492Z,17.10
2017-11-30T12:47:08.376Z,16.80
2017-11-30T12:49:36.802Z,16.35
2017-11-30T12:52:05.168Z,16.20
2017-11-30T12:54:32.799Z,19.53
2017-11-30T12:57:00.473Z,17.77
2017-11-30T12:59:28.101Z,16.43
2017-11-30T13:01:55.777Z,16.20
2017-11-30T13:04:23.552Z,18.30
2017-11-30T13:06:51.381Z,15.93
2017-11-30T13:09:19.145Z,15.88
2017-11-30T13:11:46.818Z,15.50
2017-11-30T13:14:14.510Z,15.93
2017-11-30T13:16:42.147Z,17.23
2017-11-30T13:19:10.500Z,15.82
2017-11-30T13:21:38.185Z,14.07
2017-11-30T13:24:05.837Z,14.38
2017-11-30T13:26:34.290Z,14.82
2017-11-30T13:29:01.966Z,13.65
2017-11-30T13:31:29.625Z,15.03
2017-11-30T13:33:57.281Z,13.70
2017-11-30T13:36:25.578Z,15.45
2017-11-30T13:38:54.020Z,15.07
2017-11-30T13:41:21.634Z,14.03
2017-11-30T13:43:50.281Z,15.33
2017-11-30T13:46:17.947Z,14.55
2017-11-30T13:48:45.565Z,14.47
2017-11-30T13:51:15.394Z,15.77
2017-11-30T13:53:47.801Z,13.45
2017-11-30T13:56:15.754Z,12.60
2017-11-30T13:58:45.106Z,13.83
2017-11-30T14:01:12.727Z,15.17
2017-11-30T14:03:40.673Z,12.53
2017-11-30T14:06:08.460Z,13.37
2017-11-30T14:08:36.117Z,15.90
2017-11-30T14:11:03.965Z,13.75
2017-11-30T14:13:31.625Z,12.90
2017-11-30T14:15:59.312Z,13.30
2017-11-30T14:18:26.930Z,13.90
2017-11-30T14:20:54.594Z,13.17
2017-11-30T14:23:22.250Z,13.17
2017-11-30T14:25:50.015Z,12.90
2017-11-30T14:28:17.680Z,12.93
2017-11-30T14:30:45.346Z,14.57
2017-11-30T14:33:13.001Z,13.93
2017-11-30T14:35:40.667Z,12.60
2017-11-30T14:38:08.471Z,12.90
2017-11-30T14:40:36.857Z,12.53
2017-11-30T14:43:05.297Z,14.00
2017-11-30T14:45:32.917Z,13.80
2017-11-30T14:48:00.580Z,15.27
2017-11-30T14:50:28.449Z,13.03
2017-11-30T14:52:56.105Z,13.70
2017-11-30T14:55:23.778Z,14.90
2017-11-30T14:57:51.388Z,14.20
2017-11-30T15:00:19.044Z,15.37
2017-11-30T15:02:46.710Z,15.03
2017-11-30T15:05:15.105Z,14.60
2017-11-30T15:07:42.826Z,16.90
2017-11-30T15:10:10.521Z,16.00
2017-11-30T15:12:38.348Z,16.87
2017-11-30T15:15:05.965Z,15.80
2017-11-30T15:17:33.652Z,15.23
2017-11-30T15:20:01.278Z,15.55
2017-11-30T15:22:28.888Z,16.13
2017-11-30T15:24:56.554Z,16.90
2017-11-30T15:27:24.216Z,15.23
2017-11-30T15:29:53.206Z,15.18
2017-11-30T15:32:20.868Z,14.93
2017-11-30T15:34:48.602Z,14.50
2017-11-30T15:37:16.214Z,14.80
2017-11-30T15:39:43.880Z,15.83
2017-11-30T15:42:12.302Z,13.62
2017-11-30T15:44:39.962Z,15.07
2017-11-30T15:47:07.584Z,14.70
2017-11-30T15:49:35.401Z,13.25
2017-11-30T15:52:03.049Z,14.37
2017-11-30T15:54:30.735Z,13.40
2017-11-30T15:56:59.120Z,15.57
2017-11-30T15:59:26.783Z,13.90
2017-11-30T16:01:54.994Z,15.77
2017-11-30T16:04:22.602Z,13.40
2017-11-30T16:06:50.275Z,13.90
2017-11-30T16:09:17.917Z,14.53
2017-11-30T16:11:45.546Z,13.70
2017-11-30T16:14:13.337Z,13.10
2017-11-30T16:16:40.952Z,12.10
2017-11-30T16:19:08.626Z,13.60
2017-11-30T16:21:36.318Z,15.15
2017-11-30T16:24:03.970Z,14.03
2017-11-30T16:26:31.605Z,14.60
2017-11-30T16:28:59.261Z,13.57
2017-11-30T16:31:27.058Z,14.90
2017-11-30T16:33:54.893Z,14.55
2017-11-30T16:36:22.506Z,15.05
2017-11-30T16:38:50.610Z,14.33
2017-11-30T16:41:18.285Z,13.77
2017-11-30T16:43:45.944Z,13.90
2017-11-30T16:46:13.646Z,14.80
2017-11-30T16:48:41.264Z,14.07
2017-11-30T16:51:10.563Z,15.87
2017-11-30T16:53:39.165Z,12.67
2017-11-30T16:56:12.485Z,14.40
2017-11-30T16:58:40.949Z,14.27
2017-11-30T17:01:08.906Z,14.77
2017-11-30T17:03:36.674Z,15.13
2017-11-30T17:06:04.305Z,15.87
2017-11-30T17:08:31.971Z,14.00
2017-11-30T17:10:59.598Z,15.20
2017-11-30T17:13:27.306Z,15.77
2017-11-30T17:15:54.970Z,15.38
2017-11-30T17:18:22.647Z,16.95
2017-11-30T17:21:11.883Z,14.15
2017-11-30T17:23:39.511Z,14.10
2017-11-30T17:26:07.421Z,14.07
2017-11-30T17:28:35.083Z,16.47
2017-11-30T17:31:04.169Z,16.67
2017-11-30T17:33:31.841Z,14.70
2017-11-30T17:35:59.700Z,15.37
2017-11-30T17:38:27.362Z,17.03
2017-11-30T17:40:54.997Z,16.50
2017-11-30T17:43:22.702Z,15.52
2017-11-30T17:45:50.326Z,16.80
2017-11-30T17:48:17.934Z,15.33
2017-11-30T17:50:46.366Z,16.67
2017-11-30T17:53:14.628Z,16.63
2017-11-30T17:55:42.240Z,18.47
2017-11-30T17:58:09.906Z,16.40
2017-11-30T18:00:37.673Z,16.60
2017-11-30T18:03:05.402Z,17.20
2017-11-30T18:05:33.029Z,16.00
2017-11-30T18:08:00.714Z,17.23
2017-11-30T18:10:28.333Z,17.60
2017-11-30T18:12:56.765Z,15.83
2017-11-30T18:15:24.432Z,18.07
2017-11-30T18:17:53.602Z,17.53
2017-11-30T18:20:21.493Z,18.87
2017-11-30T18:22:49.173Z,16.20
2017-11-30T18:25:16.836Z,19.45
2017-11-30T18:27:44.461Z,17.77
2017-11-30T18:30:12.121Z,17.20
2017-11-30T18:32:39.785Z,16.67
2017-11-30T18:35:07.472Z,16.80
2017-11-30T18:37:35.233Z,17.73
2017-11-30T18:40:03.073Z,17.27
2017-11-30T18:42:30.688Z,16.80
2017-11-30T18:44:58.373Z,17.90
2017-11-30T18:47:26.062Z,18.07
2017-11-30T18:49:53.805Z,17.33
2017-11-30T18:52:21.586Z,16.52
2017-11-30T18:54:49.207Z,16.03
2017-11-30T18:57:16.872Z,17.50
2017-11-30T18:59:44.485Z,16.47
2017-11-30T19:02:12.190Z,16.93
2017-11-30T19:04:39.801Z,17.75
2017-11-30T19:07:08.222Z,18.08
2017-11-30T19:09:35.894Z,16.70
2017-11-30T19:12:03.561Z,14.43
2017-11-30T19:14:31.181Z,17.30
2017-11-30T19:16:58.841Z,19.30
2017-11-30T19:19:27.296Z,15.20
2017-11-30T19:21:54.959Z,17.03
2017-11-30T19:24:23.774Z,16.50
2017-11-30T19:26:51.385Z,14.30
2017-11-30T19:29:19.045Z,13.67
2017-11-30T19:31:46.662Z,13.73
2017-11-30T19:34:15.093Z,13.07
2017-11-30T19:36:42.756Z,13.30
2017-11-30T19:39:10.374Z,13.47
2017-11-30T19:41:38.037Z,14.07
2017-11-30T19:44:05.702Z,14.95
2017-11-30T19:46:36.088Z,13.97
2017-11-30T19:49:03.753Z,12.70
2017-11-30T19:51:32.183Z,12.75
2017-11-30T19:53:59.797Z,10.90
2017-11-30T19:56:27.657Z,13.40
2017-11-30T19:58:56.053Z,12.90
2017-11-30T20:01:24.685Z,13.60
2017-11-30T20:03:52.532Z,12.80
2017-11-30T20:06:20.721Z,12.73
2017-11-30T20:08:48.340Z,13.70
2017-11-30T20:11:16.010Z,14.17
2017-11-30T20:13:43.621Z,12.83
2017-11-30T20:16:11.274Z,14.27
2017-11-30T20:18:38.889Z,14.85
2017-11-30T20:21:06.577Z,14.03
2017-11-30T20:23:34.203Z,16.30
2017-11-30T20:26:01.853Z,15.07
2017-11-30T20:28:29.534Z,14.27
2017-11-30T20:30:57.149Z,14.83
2017-11-30T20:33:24.765Z,14.33
2017-11-30T20:35:52.538Z,15.93
2017-11-30T20:38:20.145Z,13.93
2017-11-30T20:40:48.525Z,13.30
2017-11-30T20:43:16.185Z,13.70
2017-11-30T20:45:44.185Z,14.57
2017-11-30T20:48:11.876Z,13.23
2017-11-30T20:50:39.492Z,14.13
2017-11-30T20:53:07.174Z,12.87
2017-11-30T20:55:34.800Z,12.93
2017-11-30T20:58:02.453Z,14.53
2017-11-30T21:00:30.122Z,12.25
2017-11-30T21:02:57.753Z,13.07
2017-11-30T21:05:25.372Z,13.27
2017-11-30T21:07:53.967Z,14.07
2017-11-30T21:10:23.735Z,13.62
2017-11-30T21:12:51.669Z,13.90
2017-11-30T21:15:19.416Z,14.13
2017-11-30T21:17:47.086Z,14.63
2017-11-30T21:20:16.206Z,13.70
2017-11-30T21:22:44.645Z,15.15
2017-11-30T21:25:12.313Z,16.40
2017-11-30T21:27:39.935Z,16.05
2017-11-30T21:30:07.593Z,14.67
2017-11-30T21:32:35.251Z,15.40
2017-11-30T21:35:02.913Z,15.70
2017-11-30T21:37:30.534Z,16.77
2017-11-30T21:39:58.958Z,14.07
2017-11-30T21:42:26.586Z,14.27
2017-11-30T21:44:54.421Z,16.65
2017-11-30T21:47:22.271Z,13.95
2017-11-30T21:49:49.884Z,14.60
2017-11-30T21:52:17.702Z,16.50
2017-11-30T21:54:45.463Z,15.80
2017-11-30T21:57:13.310Z,15.43
2017-11-30T21:59:40.973Z,15.87
2017-11-30T22:02:08.640Z,16.57
2017-11-30T22:04:37.234Z,15.20
2017-11-30T22:07:05.002Z,16.30
2017-11-30T22:09:32.672Z,16.33
2017-11-30T22:12:00.313Z,15.67
2017-11-30T22:14:27.973Z,14.47
2017-11-30T22:16:55.592Z,16.33
2017-11-30T22:19:23.248Z,17.40
2017-11-30T22:21:50.890Z,15.73
2017-11-30T22:24:18.567Z,15.60
2017-11-30T22:26:47.169Z,14.43
2017-11-30T22:29:14.822Z,14.93
2017-11-30T22:31:42.462Z,15.00
2017-11-30T22:34:10.141Z,16.75
2017-11-30T22:36:37.765Z,16.40
2017-11-30T22:39:05.440Z,14.10
2017-11-30T22:41:33.113Z,15.10
2017-11-30T22:44:00.818Z,13.60
2017-11-30T22:46:28.448Z,15.57
2017-11-30T22:48:56.102Z,16.65
2017-11-30T22:51:23.748Z,14.35
2017-11-30T22:53:51.394Z,14.10
2017-11-30T22:56:19.077Z,14.70
2017-11-30T22:58:46.770Z,14.90
2017-11-30T23:01:14.608Z,13.43
2017-11-30T23:03:42.234Z,14.68
2017-11-30T23:06:09.892Z,14.77
2017-11-30T23:08:38.534Z,14.90
2017-11-30T23:11:06.197Z,14.50
2017-11-30T23:13:34.512Z,14.25
2017-11-30T23:16:02.352Z,15.88
2017-11-30T23:18:30.022Z,15.27
2017-11-30T23:20:57.686Z,13.50
2017-11-30T23:23:25.330Z,16.23
2017-11-30T23:25:53.074Z,14.82
2017-11-30T23:28:20.701Z,16.60
2017-11-30T23:30:48.361Z,16.10
2017-11-30T23:33:16.061Z,14.67
2017-11-30T23:35:43.837Z,15.70
2017-11-30T23:38:12.171Z,16.83
2017-11-30T23:40:39.825Z,17.17
2017-11-30T23:43:07.486Z,14.67
2017-11-30T23:45:35.202Z,14.43
2017-11-30T23:48:02.810Z,16.50
2017-11-30T23:50:30.477Z,15.85
2017-11-30T23:52:58.133Z,15.50
2017-11-30T23:55:25.800Z,15.33
2017-11-30T23:57:53.464Z,16.60
